Grand River, Ohio
Current Conditions -  °F | °C
As of 10:45 PM on Wednesday 17 Dec 2014 (Local Time) from KCGF Reporting Station
Light Snow Light Snow  
Wind Chill: 21°   Ceiling: 1500
Heat Index: 32°   Visibility: 7mi
Dew Point: 25°   Wind: 16mph
Humidity: 75%   Direction: 300°WNW
Pressure: 30.13"   Gusts: 29mph
Location:  41.74°N, 81.28°W
Report Text: KCGF 180345Z 30014G25KT 7SM -SN BKN015 OVC028 00/M04 A3013
Loading
Personal Weather Stations






























Interactive Weather Map New forecast layout! Learn more

10-Day Weather Forecast

Advertisements
Track Severe Weather on mobile